Hauptseite
METAR-TAF:

METAR-TAF

Flughäfen :

Sligo, Irland

Breite: 54-16-49N, Länge: 8-35-57W, Höhe: 3 m

Beobachtung

Neuester Wetterbericht von vor 22 Minuten, um 07:30 UTC
Wind 4 kt aus Ost
Temperatur 4°C
Luftfeuchtigkeit 100%
Luftdruck 1029 hPa
Sichtweite 10 km oder mehr
Durchbrochene Bewölkung in der Höhe von 4000 ft

METAR: EISG 180730Z 09004KT 9999 BKN040 04/04 Q1029

Zeit: 08:52 (07:52 UTC)

Prognose

Neuester Wetterbericht von vor 2 Stunden und 52 Minuten, um 05:00 UTC
Gültige Prognose vom 18 um 06 UTC bis 18 um 15 UTC
Wind 5 kt aus Süd
Sichtweite 10 km oder mehr
Leicht bewölkt in der Höhe von 2000 ft
Durchbrochene Bewölkung in der Höhe von 4000 ft
Übergehend zu
vom 18 um 08 UTC bis 18 um 11 UTC
Wind 10 kt aus Süd

TAF: EISG 180500Z 1806/1815 19005KT 9999 FEW020 BKN040 BECMG 1808/1811 17010KT

Wetterbeobachtungen und Prognosen von mehr als 4000 Flughäfen (METAR und TAF Bericht).

Die verfügbaren Stationen werden durch gelbe und rote Markierungen auf der Karte dargestellt.

Führen Sie die Maus auf sie, um den Namen der Station zu sehen.

Darauf klicken, um die Beobachtung von Wetterbeobachtungen und Prognosen zu sehen.

Um die Karte zu ändern : klicken Sie auf den grünen Tasten mit einem schwarzen Kreuz Zum Vergrößern, auf den grünen Button mit einem Gedankenstrich zu verkleinern, oder auf die grünen Pfeile für benachbarte Karten.


METAR-TAF: